sensor_id;sensor_type;location;lat;lon;timestamp;P1;durP1;ratioP1;P2;durP2;ratioP2
51286;SDS011;37364;46.974;18.916;2022-08-21T00:01:38;7.05;;;4.50;;
51286;SDS011;37364;46.974;18.916;2022-08-21T00:04:09;7.47;;;5.00;;
51286;SDS011;37364;46.974;18.916;2022-08-21T00:06:49;10.93;;;5.13;;
51286;SDS011;37364;46.974;18.916;2022-08-21T00:09:21;7.38;;;5.35;;
51286;SDS011;37364;46.974;18.916;2022-08-21T00:11:54;9.20;;;5.50;;
51286;SDS011;37364;46.974;18.916;2022-08-21T00:14:24;7.85;;;6.32;;
51286;SDS011;37364;46.974;18.916;2022-08-21T00:16:58;10.20;;;8.10;;
51286;SDS011;37364;46.974;18.916;2022-08-21T00:19:29;17.50;;;11.45;;
51286;SDS011;37364;46.974;18.916;2022-08-21T00:22:00;11.93;;;10.55;;
51286;SDS011;37364;46.974;18.916;2022-08-21T00:24:31;11.18;;;10.18;;
51286;SDS011;37364;46.974;18.916;2022-08-21T00:27:04;18.90;;;10.93;;
51286;SDS011;37364;46.974;18.916;2022-08-21T00:29:34;11.85;;;10.48;;
51286;SDS011;37364;46.974;18.916;2022-08-21T00:32:05;10.70;;;9.45;;
51286;SDS011;37364;46.974;18.916;2022-08-21T00:34:35;13.18;;;9.25;;
51286;SDS011;37364;46.974;18.916;2022-08-21T00:37:06;10.35;;;9.07;;
51286;SDS011;37364;46.974;18.916;2022-08-21T00:39:36;11.50;;;9.60;;
51286;SDS011;37364;46.974;18.916;2022-08-21T00:42:15;12.05;;;10.23;;
51286;SDS011;37364;46.974;18.916;2022-08-21T00:44:49;13.88;;;9.85;;
51286;SDS011;37364;46.974;18.916;2022-08-21T00:47:20;15.40;;;9.52;;
51286;SDS011;37364;46.974;18.916;2022-08-21T00:49:52;9.48;;;6.78;;
51286;SDS011;37364;46.974;18.916;2022-08-21T00:52:29;7.25;;;5.75;;
51286;SDS011;37364;46.974;18.916;2022-08-21T00:55:03;5.78;;;5.20;;
51286;SDS011;37364;46.974;18.916;2022-08-21T00:57:39;6.13;;;4.30;;
51286;SDS011;37364;46.974;18.916;2022-08-21T01:00:18;6.50;;;4.40;;
51286;SDS011;37364;46.974;18.916;2022-08-21T01:03:00;6.82;;;4.03;;
51286;SDS011;37364;46.974;18.916;2022-08-21T01:05:36;5.53;;;3.70;;
51286;SDS011;37364;46.974;18.916;2022-08-21T01:08:09;4.40;;;4.00;;
51286;SDS011;37364;46.974;18.916;2022-08-21T01:10:41;3.97;;;3.67;;
51286;SDS011;37364;46.974;18.916;2022-08-21T01:13:28;6.22;;;3.35;;
51286;SDS011;37364;46.974;18.916;2022-08-21T01:16:05;6.15;;;3.50;;
51286;SDS011;37364;46.974;18.916;2022-08-21T01:18:40;3.60;;;3.40;;
51286;SDS011;37364;46.974;18.916;2022-08-21T01:21:14;12.00;;;3.95;;
51286;SDS011;37364;46.974;18.916;2022-08-21T01:26:28;5.95;;;4.20;;
51286;SDS011;37364;46.974;18.916;2022-08-21T01:29:05;5.68;;;5.18;;
51286;SDS011;37364;46.974;18.916;2022-08-21T01:31:40;5.93;;;5.40;;
51286;SDS011;37364;46.974;18.916;2022-08-21T01:34:12;6.75;;;6.10;;
51286;SDS011;37364;46.974;18.916;2022-08-21T01:36:45;9.10;;;5.80;;
51286;SDS011;37364;46.974;18.916;2022-08-21T01:39:16;8.25;;;5.05;;
51286;SDS011;37364;46.974;18.916;2022-08-21T01:41:47;6.30;;;4.97;;
51286;SDS011;37364;46.974;18.916;2022-08-21T01:44:19;6.68;;;5.20;;
51286;SDS011;37364;46.974;18.916;2022-08-21T01:46:50;6.75;;;4.53;;
51286;SDS011;37364;46.974;18.916;2022-08-21T01:49:21;7.40;;;5.40;;
51286;SDS011;37364;46.974;18.916;2022-08-21T01:51:54;6.18;;;4.18;;
51286;SDS011;37364;46.974;18.916;2022-08-21T01:54:25;4.38;;;3.72;;
51286;SDS011;37364;46.974;18.916;2022-08-21T01:56:55;3.97;;;3.45;;
51286;SDS011;37364;46.974;18.916;2022-08-21T01:59:27;6.50;;;5.43;;
51286;SDS011;37364;46.974;18.916;2022-08-21T02:01:57;3.65;;;3.35;;
51286;SDS011;37364;46.974;18.916;2022-08-21T02:04:30;4.43;;;3.88;;
51286;SDS011;37364;46.974;18.916;2022-08-21T02:07:03;5.20;;;3.33;;
51286;SDS011;37364;46.974;18.916;2022-08-21T02:09:35;4.32;;;3.92;;
51286;SDS011;37364;46.974;18.916;2022-08-21T02:12:08;4.13;;;3.72;;
51286;SDS011;37364;46.974;18.916;2022-08-21T02:14:39;5.80;;;4.13;;
51286;SDS011;37364;46.974;18.916;2022-08-21T02:17:09;5.13;;;4.35;;
51286;SDS011;37364;46.974;18.916;2022-08-21T02:19:39;4.43;;;4.07;;
51286;SDS011;37364;46.974;18.916;2022-08-21T02:22:12;4.10;;;3.80;;
51286;SDS011;37364;46.974;18.916;2022-08-21T02:24:42;7.88;;;4.47;;
51286;SDS011;37364;46.974;18.916;2022-08-21T02:27:20;6.05;;;4.88;;
51286;SDS011;37364;46.974;18.916;2022-08-21T02:29:53;5.65;;;5.15;;
51286;SDS011;37364;46.974;18.916;2022-08-21T02:32:25;6.10;;;5.10;;
51286;SDS011;37364;46.974;18.916;2022-08-21T02:34:55;10.27;;;6.22;;
51286;SDS011;37364;46.974;18.916;2022-08-21T02:37:28;7.97;;;6.20;;
51286;SDS011;37364;46.974;18.916;2022-08-21T02:39:58;8.57;;;6.60;;
51286;SDS011;37364;46.974;18.916;2022-08-21T02:42:29;9.82;;;6.63;;
51286;SDS011;37364;46.974;18.916;2022-08-21T02:44:59;9.48;;;6.50;;
51286;SDS011;37364;46.974;18.916;2022-08-21T02:47:29;8.07;;;6.40;;
51286;SDS011;37364;46.974;18.916;2022-08-21T02:50:00;10.85;;;7.28;;
51286;SDS011;37364;46.974;18.916;2022-08-21T02:52:33;13.98;;;7.70;;
51286;SDS011;37364;46.974;18.916;2022-08-21T02:55:04;15.98;;;7.97;;
51286;SDS011;37364;46.974;18.916;2022-08-21T02:57:34;11.88;;;7.90;;
51286;SDS011;37364;46.974;18.916;2022-08-21T03:00:05;12.13;;;8.80;;
51286;SDS011;37364;46.974;18.916;2022-08-21T03:02:37;12.67;;;8.50;;
51286;SDS011;37364;46.974;18.916;2022-08-21T03:05:08;18.83;;;8.88;;
51286;SDS011;37364;46.974;18.916;2022-08-21T03:07:42;10.02;;;8.27;;
51286;SDS011;37364;46.974;18.916;2022-08-21T03:10:14;12.75;;;8.27;;
51286;SDS011;37364;46.974;18.916;2022-08-21T03:12:46;9.50;;;8.50;;
51286;SDS011;37364;46.974;18.916;2022-08-21T03:15:17;13.68;;;8.48;;
51286;SDS011;37364;46.974;18.916;2022-08-21T03:17:50;9.73;;;7.85;;
51286;SDS011;37364;46.974;18.916;2022-08-21T03:20:23;8.95;;;8.05;;
51286;SDS011;37364;46.974;18.916;2022-08-21T03:22:57;13.48;;;8.60;;
51286;SDS011;37364;46.974;18.916;2022-08-21T03:25:28;12.02;;;8.48;;
51286;SDS011;37364;46.974;18.916;2022-08-21T03:28:07;11.80;;;8.40;;
51286;SDS011;37364;46.974;18.916;2022-08-21T03:30:40;10.35;;;8.27;;
51286;SDS011;37364;46.974;18.916;2022-08-21T03:33:11;14.07;;;8.77;;
51286;SDS011;37364;46.974;18.916;2022-08-21T03:35:47;11.70;;;8.75;;
51286;SDS011;37364;46.974;18.916;2022-08-21T03:38:25;10.30;;;7.95;;
51286;SDS011;37364;46.974;18.916;2022-08-21T03:40:57;13.57;;;8.05;;
51286;SDS011;37364;46.974;18.916;2022-08-21T03:43:28;11.30;;;7.97;;
51286;SDS011;37364;46.974;18.916;2022-08-21T03:45:58;10.00;;;7.57;;
51286;SDS011;37364;46.974;18.916;2022-08-21T03:48:30;8.98;;;7.45;;
51286;SDS011;37364;46.974;18.916;2022-08-21T03:51:01;10.88;;;8.32;;
51286;SDS011;37364;46.974;18.916;2022-08-21T03:53:35;14.90;;;8.30;;
51286;SDS011;37364;46.974;18.916;2022-08-21T03:56:06;12.95;;;8.18;;
51286;SDS011;37364;46.974;18.916;2022-08-21T03:58:36;14.13;;;8.73;;
51286;SDS011;37364;46.974;18.916;2022-08-21T04:01:08;14.85;;;8.50;;
51286;SDS011;37364;46.974;18.916;2022-08-21T04:03:39;11.45;;;7.25;;
51286;SDS011;37364;46.974;18.916;2022-08-21T04:06:09;10.35;;;8.23;;
51286;SDS011;37364;46.974;18.916;2022-08-21T04:08:42;10.27;;;8.02;;
51286;SDS011;37364;46.974;18.916;2022-08-21T04:11:12;13.05;;;8.80;;
51286;SDS011;37364;46.974;18.916;2022-08-21T04:13:42;11.73;;;7.90;;
51286;SDS011;37364;46.974;18.916;2022-08-21T04:16:13;13.27;;;8.60;;
51286;SDS011;37364;46.974;18.916;2022-08-21T04:18:43;16.15;;;8.30;;
51286;SDS011;37364;46.974;18.916;2022-08-21T04:21:14;10.43;;;7.75;;
51286;SDS011;37364;46.974;18.916;2022-08-21T04:23:52;13.55;;;8.10;;
51286;SDS011;37364;46.974;18.916;2022-08-21T04:26:23;11.88;;;9.20;;
51286;SDS011;37364;46.974;18.916;2022-08-21T04:28:54;16.73;;;8.40;;
51286;SDS011;37364;46.974;18.916;2022-08-21T04:31:25;13.88;;;7.97;;
51286;SDS011;37364;46.974;18.916;2022-08-21T04:33:56;12.75;;;8.55;;
51286;SDS011;37364;46.974;18.916;2022-08-21T04:36:26;15.88;;;8.40;;
51286;SDS011;37364;46.974;18.916;2022-08-21T04:38:59;7.80;;;7.00;;
51286;SDS011;37364;46.974;18.916;2022-08-21T04:41:30;19.35;;;8.43;;
51286;SDS011;37364;46.974;18.916;2022-08-21T04:44:00;10.00;;;7.43;;
51286;SDS011;37364;46.974;18.916;2022-08-21T04:46:31;11.70;;;7.75;;
51286;SDS011;37364;46.974;18.916;2022-08-21T04:49:01;9.77;;;7.30;;
51286;SDS011;37364;46.974;18.916;2022-08-21T04:51:32;10.90;;;8.50;;
51286;SDS011;37364;46.974;18.916;2022-08-21T04:54:09;10.55;;;8.18;;
51286;SDS011;37364;46.974;18.916;2022-08-21T04:56:44;15.65;;;8.82;;
51286;SDS011;37364;46.974;18.916;2022-08-21T04:59:20;12.30;;;9.43;;
51286;SDS011;37364;46.974;18.916;2022-08-21T05:01:54;13.07;;;9.48;;
51286;SDS011;37364;46.974;18.916;2022-08-21T05:04:27;21.15;;;9.98;;
51286;SDS011;37364;46.974;18.916;2022-08-21T05:07:02;15.20;;;9.73;;
51286;SDS011;37364;46.974;18.916;2022-08-21T05:09:38;16.00;;;9.40;;
51286;SDS011;37364;46.974;18.916;2022-08-21T05:12:08;18.95;;;10.73;;
51286;SDS011;37364;46.974;18.916;2022-08-21T05:14:39;23.17;;;10.80;;
51286;SDS011;37364;46.974;18.916;2022-08-21T05:17:10;16.63;;;9.68;;
51286;SDS011;37364;46.974;18.916;2022-08-21T05:19:40;14.38;;;10.52;;
51286;SDS011;37364;46.974;18.916;2022-08-21T05:22:10;13.75;;;10.20;;
51286;SDS011;37364;46.974;18.916;2022-08-21T05:24:43;15.02;;;10.05;;
51286;SDS011;37364;46.974;18.916;2022-08-21T05:27:13;21.95;;;10.20;;
51286;SDS011;37364;46.974;18.916;2022-08-21T05:29:43;13.80;;;10.48;;
51286;SDS011;37364;46.974;18.916;2022-08-21T05:32:15;11.13;;;9.75;;
51286;SDS011;37364;46.974;18.916;2022-08-21T05:34:45;18.02;;;10.00;;
51286;SDS011;37364;46.974;18.916;2022-08-21T05:37:16;17.80;;;9.05;;
51286;SDS011;37364;46.974;18.916;2022-08-21T05:39:49;16.02;;;9.82;;
51286;SDS011;37364;46.974;18.916;2022-08-21T05:42:39;13.52;;;9.38;;
51286;SDS011;37364;46.974;18.916;2022-08-21T05:45:20;13.73;;;8.23;;
51286;SDS011;37364;46.974;18.916;2022-08-21T05:48:10;17.10;;;8.63;;
51286;SDS011;37364;46.974;18.916;2022-08-21T05:50:41;25.35;;;9.57;;
51286;SDS011;37364;46.974;18.916;2022-08-21T05:53:13;10.80;;;8.38;;
51286;SDS011;37364;46.974;18.916;2022-08-21T05:55:46;13.60;;;9.63;;
51286;SDS011;37364;46.974;18.916;2022-08-21T05:58:18;15.13;;;8.23;;
51286;SDS011;37364;46.974;18.916;2022-08-21T06:00:50;26.70;;;8.55;;
51286;SDS011;37364;46.974;18.916;2022-08-21T06:03:22;11.82;;;8.90;;
51286;SDS011;37364;46.974;18.916;2022-08-21T06:05:54;11.25;;;7.50;;
51286;SDS011;37364;46.974;18.916;2022-08-21T06:08:25;14.38;;;7.80;;
51286;SDS011;37364;46.974;18.916;2022-08-21T06:10:59;12.18;;;7.32;;
51286;SDS011;37364;46.974;18.916;2022-08-21T06:13:30;21.20;;;6.00;;
51286;SDS011;37364;46.974;18.916;2022-08-21T06:16:02;14.20;;;5.78;;
51286;SDS011;37364;46.974;18.916;2022-08-21T06:18:35;12.18;;;6.63;;
51286;SDS011;37364;46.974;18.916;2022-08-21T06:21:06;11.98;;;6.53;;
51286;SDS011;37364;46.974;18.916;2022-08-21T06:23:38;8.15;;;5.07;;
51286;SDS011;37364;46.974;18.916;2022-08-21T06:26:12;6.97;;;5.00;;
51286;SDS011;37364;46.974;18.916;2022-08-21T06:28:42;8.25;;;5.50;;
51286;SDS011;37364;46.974;18.916;2022-08-21T06:31:14;5.63;;;4.57;;
51286;SDS011;37364;46.974;18.916;2022-08-21T06:33:45;5.78;;;5.05;;
51286;SDS011;37364;46.974;18.916;2022-08-21T06:36:16;7.25;;;4.82;;
51286;SDS011;37364;46.974;18.916;2022-08-21T06:38:47;12.32;;;4.93;;
51286;SDS011;37364;46.974;18.916;2022-08-21T06:41:20;7.00;;;4.60;;
51286;SDS011;37364;46.974;18.916;2022-08-21T06:43:52;4.55;;;4.18;;
51286;SDS011;37364;46.974;18.916;2022-08-21T06:46:24;11.02;;;4.70;;
51286;SDS011;37364;46.974;18.916;2022-08-21T06:48:56;17.90;;;4.90;;
51286;SDS011;37364;46.974;18.916;2022-08-21T06:51:27;5.85;;;4.40;;
51286;SDS011;37364;46.974;18.916;2022-08-21T06:53:57;4.85;;;4.35;;
51286;SDS011;37364;46.974;18.916;2022-08-21T06:56:30;4.20;;;3.85;;
51286;SDS011;37364;46.974;18.916;2022-08-21T06:59:03;7.55;;;4.68;;
51286;SDS011;37364;46.974;18.916;2022-08-21T07:01:34;4.95;;;3.88;;
51286;SDS011;37364;46.974;18.916;2022-08-21T07:04:04;9.30;;;4.70;;
51286;SDS011;37364;46.974;18.916;2022-08-21T07:06:34;7.50;;;4.45;;
51286;SDS011;37364;46.974;18.916;2022-08-21T07:09:05;3.95;;;3.70;;
51286;SDS011;37364;46.974;18.916;2022-08-21T07:11:39;9.30;;;4.30;;
51286;SDS011;37364;46.974;18.916;2022-08-21T07:14:13;5.65;;;4.63;;
51286;SDS011;37364;46.974;18.916;2022-08-21T07:16:46;8.10;;;4.55;;
51286;SDS011;37364;46.974;18.916;2022-08-21T07:19:17;8.60;;;4.80;;
51286;SDS011;37364;46.974;18.916;2022-08-21T07:21:47;9.48;;;4.10;;
51286;SDS011;37364;46.974;18.916;2022-08-21T07:24:17;5.93;;;3.85;;
51286;SDS011;37364;46.974;18.916;2022-08-21T07:26:51;5.05;;;4.40;;
51286;SDS011;37364;46.974;18.916;2022-08-21T07:31:51;7.82;;;4.78;;
51286;SDS011;37364;46.974;18.916;2022-08-21T07:34:22;9.05;;;5.32;;
51286;SDS011;37364;46.974;18.916;2022-08-21T07:36:52;4.97;;;4.30;;
51286;SDS011;37364;46.974;18.916;2022-08-21T07:39:24;12.50;;;5.13;;
51286;SDS011;37364;46.974;18.916;2022-08-21T07:41:56;7.93;;;4.88;;
51286;SDS011;37364;46.974;18.916;2022-08-21T07:44:33;10.38;;;5.72;;
51286;SDS011;37364;46.974;18.916;2022-08-21T07:47:03;5.28;;;4.22;;
51286;SDS011;37364;46.974;18.916;2022-08-21T07:49:34;6.20;;;4.65;;
51286;SDS011;37364;46.974;18.916;2022-08-21T07:52:04;6.53;;;5.15;;
51286;SDS011;37364;46.974;18.916;2022-08-21T07:54:34;6.53;;;4.90;;
51286;SDS011;37364;46.974;18.916;2022-08-21T07:57:07;5.63;;;4.90;;
51286;SDS011;37364;46.974;18.916;2022-08-21T07:59:37;5.78;;;5.25;;
51286;SDS011;37364;46.974;18.916;2022-08-21T08:02:08;4.97;;;4.50;;
51286;SDS011;37364;46.974;18.916;2022-08-21T08:04:39;5.32;;;4.78;;
51286;SDS011;37364;46.974;18.916;2022-08-21T08:07:16;6.70;;;5.47;;
51286;SDS011;37364;46.974;18.916;2022-08-21T08:09:46;6.15;;;5.53;;
51286;SDS011;37364;46.974;18.916;2022-08-21T08:12:22;5.88;;;4.97;;
51286;SDS011;37364;46.974;18.916;2022-08-21T08:14:56;7.80;;;5.65;;
51286;SDS011;37364;46.974;18.916;2022-08-21T08:17:26;8.90;;;5.35;;
51286;SDS011;37364;46.974;18.916;2022-08-21T08:19:58;7.40;;;5.65;;
51286;SDS011;37364;46.974;18.916;2022-08-21T08:22:30;23.15;;;5.82;;
51286;SDS011;37364;46.974;18.916;2022-08-21T08:25:00;9.05;;;5.95;;
51286;SDS011;37364;46.974;18.916;2022-08-21T08:27:37;16.70;;;6.47;;
51286;SDS011;37364;46.974;18.916;2022-08-21T08:30:09;11.27;;;6.97;;
51286;SDS011;37364;46.974;18.916;2022-08-21T08:32:41;7.13;;;6.43;;
51286;SDS011;37364;46.974;18.916;2022-08-21T08:35:12;7.15;;;5.88;;
51286;SDS011;37364;46.974;18.916;2022-08-21T08:37:47;8.48;;;6.13;;
51286;SDS011;37364;46.974;18.916;2022-08-21T08:40:19;10.18;;;6.13;;
51286;SDS011;37364;46.974;18.916;2022-08-21T08:42:58;11.05;;;6.22;;
51286;SDS011;37364;46.974;18.916;2022-08-21T08:45:29;8.70;;;5.80;;
51286;SDS011;37364;46.974;18.916;2022-08-21T08:48:02;8.10;;;5.53;;
51286;SDS011;37364;46.974;18.916;2022-08-21T08:50:41;10.93;;;5.85;;
51286;SDS011;37364;46.974;18.916;2022-08-21T08:53:17;10.95;;;6.60;;
51286;SDS011;37364;46.974;18.916;2022-08-21T08:55:52;9.93;;;6.93;;
51286;SDS011;37364;46.974;18.916;2022-08-21T08:58:26;10.48;;;6.72;;
51286;SDS011;37364;46.974;18.916;2022-08-21T09:00:59;9.18;;;7.47;;
51286;SDS011;37364;46.974;18.916;2022-08-21T09:03:31;15.43;;;6.57;;
51286;SDS011;37364;46.974;18.916;2022-08-21T09:06:11;10.07;;;6.47;;
51286;SDS011;37364;46.974;18.916;2022-08-21T09:08:54;14.25;;;7.35;;
51286;SDS011;37364;46.974;18.916;2022-08-21T09:11:32;17.27;;;6.40;;
51286;SDS011;37364;46.974;18.916;2022-08-21T09:14:14;15.05;;;6.68;;
51286;SDS011;37364;46.974;18.916;2022-08-21T09:16:54;17.25;;;7.18;;
51286;SDS011;37364;46.974;18.916;2022-08-21T09:19:36;10.60;;;6.75;;
51286;SDS011;37364;46.974;18.916;2022-08-21T09:22:20;10.55;;;6.97;;
51286;SDS011;37364;46.974;18.916;2022-08-21T09:25:02;10.50;;;6.72;;
51286;SDS011;37364;46.974;18.916;2022-08-21T09:27:37;10.55;;;6.45;;
51286;SDS011;37364;46.974;18.916;2022-08-21T09:30:10;11.45;;;7.05;;
51286;SDS011;37364;46.974;18.916;2022-08-21T09:32:41;11.85;;;6.88;;
51286;SDS011;37364;46.974;18.916;2022-08-21T09:35:12;9.98;;;6.82;;
51286;SDS011;37364;46.974;18.916;2022-08-21T09:37:48;11.00;;;5.82;;
51286;SDS011;37364;46.974;18.916;2022-08-21T09:40:28;13.45;;;8.23;;
51286;SDS011;37364;46.974;18.916;2022-08-21T09:43:02;10.60;;;5.82;;
51286;SDS011;37364;46.974;18.916;2022-08-21T09:45:38;11.77;;;6.13;;
51286;SDS011;37364;46.974;18.916;2022-08-21T09:48:12;13.98;;;6.80;;
51286;SDS011;37364;46.974;18.916;2022-08-21T09:50:44;8.27;;;6.38;;
51286;SDS011;37364;46.974;18.916;2022-08-21T09:53:17;13.13;;;6.82;;
51286;SDS011;37364;46.974;18.916;2022-08-21T09:55:51;7.00;;;5.85;;
51286;SDS011;37364;46.974;18.916;2022-08-21T09:58:35;9.57;;;5.70;;
51286;SDS011;37364;46.974;18.916;2022-08-21T10:01:12;8.00;;;6.05;;
51286;SDS011;37364;46.974;18.916;2022-08-21T10:03:47;7.03;;;5.25;;
51286;SDS011;37364;46.974;18.916;2022-08-21T10:06:22;11.82;;;6.30;;
51286;SDS011;37364;46.974;18.916;2022-08-21T10:09:03;10.90;;;6.18;;
51286;SDS011;37364;46.974;18.916;2022-08-21T10:11:43;9.05;;;6.30;;
51286;SDS011;37364;46.974;18.916;2022-08-21T10:14:26;11.45;;;6.28;;
51286;SDS011;37364;46.974;18.916;2022-08-21T10:17:16;8.15;;;6.63;;
51286;SDS011;37364;46.974;18.916;2022-08-21T10:19:56;8.38;;;6.32;;
51286;SDS011;37364;46.974;18.916;2022-08-21T10:22:36;11.43;;;6.63;;
51286;SDS011;37364;46.974;18.916;2022-08-21T10:25:14;7.95;;;6.65;;
51286;SDS011;37364;46.974;18.916;2022-08-21T10:27:54;21.48;;;6.38;;
51286;SDS011;37364;46.974;18.916;2022-08-21T10:30:34;11.32;;;6.85;;
51286;SDS011;37364;46.974;18.916;2022-08-21T10:36:09;10.35;;;6.90;;
51286;SDS011;37364;46.974;18.916;2022-08-21T10:38:52;15.98;;;7.05;;
51286;SDS011;37364;46.974;18.916;2022-08-21T10:41:55;7.90;;;7.05;;
51286;SDS011;37364;46.974;18.916;2022-08-21T10:44:41;14.50;;;6.25;;
51286;SDS011;37364;46.974;18.916;2022-08-21T10:47:19;8.63;;;6.22;;
51286;SDS011;37364;46.974;18.916;2022-08-21T10:50:02;13.38;;;6.80;;
51286;SDS011;37364;46.974;18.916;2022-08-21T10:52:44;10.73;;;7.55;;
51286;SDS011;37364;46.974;18.916;2022-08-21T10:55:25;13.75;;;7.03;;
51286;SDS011;37364;46.974;18.916;2022-08-21T10:58:02;12.25;;;7.78;;
51286;SDS011;37364;46.974;18.916;2022-08-21T11:00:40;16.55;;;7.50;;
51286;SDS011;37364;46.974;18.916;2022-08-21T11:03:16;14.18;;;7.25;;
51286;SDS011;37364;46.974;18.916;2022-08-21T11:05:54;8.82;;;7.93;;
51286;SDS011;37364;46.974;18.916;2022-08-21T11:08:33;9.57;;;7.20;;
51286;SDS011;37364;46.974;18.916;2022-08-21T11:11:10;10.40;;;7.28;;
51286;SDS011;37364;46.974;18.916;2022-08-21T11:13:48;12.20;;;6.53;;
51286;SDS011;37364;46.974;18.916;2022-08-21T11:16:22;8.65;;;6.80;;
51286;SDS011;37364;46.974;18.916;2022-08-21T11:18:57;11.15;;;7.38;;
51286;SDS011;37364;46.974;18.916;2022-08-21T11:21:39;12.88;;;7.70;;
51286;SDS011;37364;46.974;18.916;2022-08-21T11:24:19;9.20;;;6.85;;
51286;SDS011;37364;46.974;18.916;2022-08-21T11:26:59;10.25;;;7.30;;
51286;SDS011;37364;46.974;18.916;2022-08-21T11:29:35;14.18;;;7.80;;
51286;SDS011;37364;46.974;18.916;2022-08-21T11:32:13;12.20;;;7.60;;
51286;SDS011;37364;46.974;18.916;2022-08-21T11:35:11;14.93;;;8.27;;
51286;SDS011;37364;46.974;18.916;2022-08-21T11:37:54;10.75;;;7.55;;
51286;SDS011;37364;46.974;18.916;2022-08-21T11:40:43;11.88;;;8.15;;
51286;SDS011;37364;46.974;18.916;2022-08-21T11:43:24;9.02;;;8.10;;
51286;SDS011;37364;46.974;18.916;2022-08-21T11:46:11;13.27;;;7.68;;
51286;SDS011;37364;46.974;18.916;2022-08-21T11:48:53;13.18;;;8.82;;
51286;SDS011;37364;46.974;18.916;2022-08-21T11:51:41;14.90;;;8.55;;
51286;SDS011;37364;46.974;18.916;2022-08-21T11:54:20;12.73;;;9.43;;
51286;SDS011;37364;46.974;18.916;2022-08-21T11:56:57;14.30;;;8.48;;
51286;SDS011;37364;46.974;18.916;2022-08-21T11:59:35;17.15;;;11.85;;
51286;SDS011;37364;46.974;18.916;2022-08-21T12:02:12;47.60;;;36.58;;
51286;SDS011;37364;46.974;18.916;2022-08-21T12:04:45;14.98;;;11.05;;
51286;SDS011;37364;46.974;18.916;2022-08-21T12:07:28;16.13;;;11.40;;
51286;SDS011;37364;46.974;18.916;2022-08-21T12:10:06;12.73;;;9.32;;
51286;SDS011;37364;46.974;18.916;2022-08-21T12:12:39;11.93;;;8.27;;
51286;SDS011;37364;46.974;18.916;2022-08-21T12:15:24;23.33;;;15.25;;
51286;SDS011;37364;46.974;18.916;2022-08-21T12:17:59;13.32;;;8.95;;
51286;SDS011;37364;46.974;18.916;2022-08-21T12:23:30;12.02;;;8.35;;
51286;SDS011;37364;46.974;18.916;2022-08-21T12:26:13;12.68;;;7.60;;
51286;SDS011;37364;46.974;18.916;2022-08-21T12:29:03;11.13;;;7.97;;
51286;SDS011;37364;46.974;18.916;2022-08-21T12:31:48;12.27;;;7.50;;
51286;SDS011;37364;46.974;18.916;2022-08-21T12:34:32;7.65;;;6.20;;
51286;SDS011;37364;46.974;18.916;2022-08-21T12:37:07;7.38;;;6.68;;
51286;SDS011;37364;46.974;18.916;2022-08-21T12:39:46;9.02;;;6.70;;
51286;SDS011;37364;46.974;18.916;2022-08-21T12:42:22;9.57;;;6.45;;
51286;SDS011;37364;46.974;18.916;2022-08-21T12:44:58;12.80;;;6.85;;
51286;SDS011;37364;46.974;18.916;2022-08-21T12:47:34;9.25;;;6.72;;
51286;SDS011;37364;46.974;18.916;2022-08-21T12:50:19;9.00;;;6.80;;
51286;SDS011;37364;46.974;18.916;2022-08-21T12:52:58;11.38;;;6.97;;
51286;SDS011;37364;46.974;18.916;2022-08-21T12:55:46;25.00;;;14.43;;
51286;SDS011;37364;46.974;18.916;2022-08-21T12:58:21;8.20;;;6.60;;
51286;SDS011;37364;46.974;18.916;2022-08-21T13:00:55;11.50;;;7.28;;
51286;SDS011;37364;46.974;18.916;2022-08-21T13:03:31;8.88;;;6.70;;
51286;SDS011;37364;46.974;18.916;2022-08-21T13:08:36;12.75;;;7.43;;
51286;SDS011;37364;46.974;18.916;2022-08-21T13:11:13;7.70;;;7.00;;
51286;SDS011;37364;46.974;18.916;2022-08-21T13:14:04;11.65;;;6.97;;
51286;SDS011;37364;46.974;18.916;2022-08-21T13:16:36;15.18;;;7.28;;
51286;SDS011;37364;46.974;18.916;2022-08-21T13:19:07;12.18;;;7.32;;
51286;SDS011;37364;46.974;18.916;2022-08-21T13:21:47;12.05;;;7.32;;
51286;SDS011;37364;46.974;18.916;2022-08-21T13:24:19;10.30;;;6.88;;
51286;SDS011;37364;46.974;18.916;2022-08-21T13:27:18;12.57;;;7.35;;
51286;SDS011;37364;46.974;18.916;2022-08-21T13:30:03;12.23;;;6.80;;
51286;SDS011;37364;46.974;18.916;2022-08-21T13:32:38;23.10;;;7.57;;
51286;SDS011;37364;46.974;18.916;2022-08-21T13:35:15;9.98;;;6.70;;
51286;SDS011;37364;46.974;18.916;2022-08-21T13:37:48;11.52;;;6.50;;
51286;SDS011;37364;46.974;18.916;2022-08-21T13:40:21;11.48;;;5.85;;
51286;SDS011;37364;46.974;18.916;2022-08-21T13:42:59;15.32;;;7.47;;
51286;SDS011;37364;46.974;18.916;2022-08-21T13:45:33;9.52;;;7.53;;
51286;SDS011;37364;46.974;18.916;2022-08-21T13:48:03;8.85;;;7.22;;
51286;SDS011;37364;46.974;18.916;2022-08-21T13:50:35;8.93;;;6.60;;
51286;SDS011;37364;46.974;18.916;2022-08-21T13:53:18;8.88;;;7.22;;
51286;SDS011;37364;46.974;18.916;2022-08-21T13:55:51;8.18;;;6.90;;
51286;SDS011;37364;46.974;18.916;2022-08-21T13:58:27;8.10;;;6.93;;
51286;SDS011;37364;46.974;18.916;2022-08-21T14:01:03;11.02;;;7.60;;
51286;SDS011;37364;46.974;18.916;2022-08-21T14:03:34;9.57;;;7.75;;
51286;SDS011;37364;46.974;18.916;2022-08-21T14:06:11;14.00;;;7.85;;
51286;SDS011;37364;46.974;18.916;2022-08-21T14:08:47;9.18;;;7.28;;
51286;SDS011;37364;46.974;18.916;2022-08-21T14:11:21;10.98;;;7.53;;
51286;SDS011;37364;46.974;18.916;2022-08-21T14:13:56;9.90;;;8.93;;
51286;SDS011;37364;46.974;18.916;2022-08-21T14:16:43;15.23;;;8.45;;
51286;SDS011;37364;46.974;18.916;2022-08-21T14:19:19;10.68;;;7.70;;
51286;SDS011;37364;46.974;18.916;2022-08-21T14:21:51;23.52;;;7.57;;
51286;SDS011;37364;46.974;18.916;2022-08-21T14:24:26;12.73;;;6.88;;
51286;SDS011;37364;46.974;18.916;2022-08-21T14:27:04;18.25;;;8.00;;
51286;SDS011;37364;46.974;18.916;2022-08-21T14:29:38;9.85;;;6.82;;
51286;SDS011;37364;46.974;18.916;2022-08-21T14:32:13;13.93;;;7.22;;
51286;SDS011;37364;46.974;18.916;2022-08-21T14:34:50;9.82;;;6.68;;
51286;SDS011;37364;46.974;18.916;2022-08-21T14:37:25;7.47;;;5.75;;
51286;SDS011;37364;46.974;18.916;2022-08-21T14:39:55;9.30;;;7.68;;
51286;SDS011;37364;46.974;18.916;2022-08-21T14:42:26;9.65;;;8.18;;
51286;SDS011;37364;46.974;18.916;2022-08-21T14:45:02;12.80;;;7.32;;
51286;SDS011;37364;46.974;18.916;2022-08-21T14:47:44;11.00;;;6.95;;
51286;SDS011;37364;46.974;18.916;2022-08-21T14:50:14;14.65;;;7.30;;
51286;SDS011;37364;46.974;18.916;2022-08-21T14:52:45;10.48;;;7.50;;
51286;SDS011;37364;46.974;18.916;2022-08-21T14:55:17;13.73;;;7.57;;
51286;SDS011;37364;46.974;18.916;2022-08-21T14:57:50;8.25;;;6.57;;
51286;SDS011;37364;46.974;18.916;2022-08-21T15:03:04;9.80;;;7.50;;
51286;SDS011;37364;46.974;18.916;2022-08-21T15:05:34;9.82;;;7.57;;
51286;SDS011;37364;46.974;18.916;2022-08-21T15:08:05;10.02;;;7.10;;
51286;SDS011;37364;46.974;18.916;2022-08-21T15:10:36;10.38;;;7.57;;
51286;SDS011;37364;46.974;18.916;2022-08-21T15:13:26;10.25;;;6.82;;
51286;SDS011;37364;46.974;18.916;2022-08-21T15:15:58;11.80;;;7.60;;
51286;SDS011;37364;46.974;18.916;2022-08-21T15:18:32;10.88;;;7.10;;
51286;SDS011;37364;46.974;18.916;2022-08-21T15:21:03;9.70;;;7.00;;
51286;SDS011;37364;46.974;18.916;2022-08-21T15:23:33;11.90;;;7.55;;
51286;SDS011;37364;46.974;18.916;2022-08-21T15:26:09;8.18;;;6.97;;